Chicoutimi, Canada
Current Conditions -  °F | °C
As of 6:00 AM on Friday 28 Nov 2014 (Local Time) from CYBG Reporting Station
Broken Clouds Broken Clouds  
Wind Chill:   Ceiling: 8500
Heat Index: 12°   Visibility: 25mi
Dew Point:   Wind: 5mph
Humidity: 85%   Direction: 290°WNW
Pressure: 30.08"   Gusts: NA
Location:  48.43°N, 71.06°W
Report Text: CYBG 281100Z 29004KT 25SM SCT013 BKN085 M11/M13 A3008 RMK SC3AC2 SLP199
Loading
Personal Weather Stations






























Interactive Weather Map New forecast layout! Learn more

10-Day Weather Forecast

Advertisements
Track Severe Weather on mobile